Time;durP1;ratioP1;P1;durP2;ratioP2;P2;SDS_P1;SDS_P2;PMS_P1;PMS_P2;Temp;Humidity;BMP_temperature;BMP_pressure;BME280_temperature;BME280_humidity;BME280_pressure;Samples;Min_cycle;Max_cycle;Signal;HPM_P1;HPM_P2
2022/01/12 00:00:02;;;;;;;;;;;21.30;44.40;;;;;;6304087;28;19935;-47
2022/01/12 00:03:10;;;;;;;;;;;21.30;44.40;;;;;;6306273;28;20036;-44
2022/01/12 00:06:13;;;;;;;;;;;21.60;44.60;;;;;;6304352;28;20672;-44
2022/01/12 00:09:15;;;;;;;;;;;21.50;44.50;;;;;;6304891;28;20010;-49
2022/01/12 00:12:16;;;;;;;;;;;21.60;44.60;;;;;;6301698;28;20039;-44
2022/01/12 00:15:18;;;;;;;;;;;21.80;44.80;;;;;;6308948;28;19959;-45
2022/01/12 00:18:20;;;;;;;;;;;21.30;44.40;;;;;;6305660;28;20731;-46
2022/01/12 00:21:21;;;;;;;;;;;21.50;44.50;;;;;;6301829;28;19924;-46
2022/01/12 00:24:27;;;;;;;;;;;21.40;44.50;;;;;;6309858;28;19982;-45
2022/01/12 00:34:07;;;;;;;;;;;21.30;44.40;;;;;;6305621;28;19970;-43
2022/01/12 00:37:09;;;;;;;;;;;21.50;44.50;;;;;;6305674;28;19947;-43
2022/01/12 00:40:11;;;;;;;;;;;21.30;44.50;;;;;;6296476;28;19927;-44
2022/01/12 00:43:13;;;;;;;;;;;21.40;44.50;;;;;;6308436;28;19923;-45
2022/01/12 00:46:15;;;;;;;;;;;21.70;44.60;;;;;;6303883;28;19924;-46
2022/01/12 00:49:16;;;;;;;;;;;21.30;44.50;;;;;;6296996;28;19920;-43
2022/01/12 00:52:17;;;;;;;;;;;21.30;44.50;;;;;;6301740;28;19930;-44
2022/01/12 00:55:22;;;;;;;;;;;21.20;44.40;;;;;;6301233;28;19935;-44
2022/01/12 00:58:24;;;;;;;;;;;21.40;44.50;;;;;;6308126;28;20124;-46
2022/01/12 01:01:26;;;;;;;;;;;21.80;44.70;;;;;;6293441;28;19934;-46
2022/01/12 01:04:27;;;;;;;;;;;21.20;44.40;;;;;;6307616;28;19924;-43
2022/01/12 01:07:29;;;;;;;;;;;21.50;44.60;;;;;;6308179;28;20584;-48
2022/01/12 01:10:44;;;;;;;;;;;21.40;44.50;;;;;;6312024;28;20632;-46
2022/01/12 01:13:56;;;;;;;;;;;21.70;44.60;;;;;;6293581;28;19924;-45
2022/01/12 01:25:22;;;;;;;;;;;21.40;44.30;;;;;;6312115;28;19927;-46
2022/01/12 01:26:58;;;;;;;;;;;21.40;44.50;;;;;;6315711;28;19952;-46
2022/01/12 01:30:02;;;;;;;;;;;21.40;44.50;;;;;;6318314;28;19959;-43
2022/01/12 01:33:08;;;;;;;;;;;21.40;44.50;;;;;;6314394;28;19934;-45
2022/01/12 01:36:10;;;;;;;;;;;21.20;44.40;;;;;;6315157;28;19924;-48
2022/01/12 01:39:12;;;;;;;;;;;21.60;44.80;;;;;;6310753;28;20034;-46
2022/01/12 01:42:18;;;;;;;;;;;21.60;44.50;;;;;;6303466;28;20030;-46
2022/01/12 01:55:07;;;;;;;;;;;21.70;44.70;;;;;;6314324;28;20668;-45
2022/01/12 01:58:12;;;;;;;;;;;21.30;44.40;;;;;;6309142;28;19928;-44
2022/01/12 02:01:14;;;;;;;;;;;21.30;44.40;;;;;;6312579;28;20058;-44
2022/01/12 02:04:24;;;;;;;;;;;21.30;44.40;;;;;;6311286;28;20024;-45
2022/01/12 02:07:26;;;;;;;;;;;21.70;44.80;;;;;;6309236;28;19924;-44
2022/01/12 02:10:30;;;;;;;;;;;21.20;44.30;;;;;;6317230;28;19924;-47
2022/01/12 02:13:34;;;;;;;;;;;21.30;44.40;;;;;;6309324;28;19927;-47
2022/01/12 02:16:49;;;;;;;;;;;21.30;44.40;;;;;;6312495;28;19927;-48
2022/01/12 02:20:06;;;;;;;;;;;21.60;44.60;;;;;;6315435;28;19930;-43
2022/01/12 02:36:20;;;;;;;;;;;21.40;44.50;;;;;;6300367;28;19927;-41
2022/01/12 02:42:40;;;;;;;;;;;21.50;44.50;;;;;;6307879;28;20554;-43
2022/01/12 02:55:27;;;;;;;;;;;21.20;44.30;;;;;;6285141;28;19931;-41
2022/01/12 02:58:28;;;;;;;;;;;21.20;44.40;;;;;;6309686;28;19924;-41
2022/01/12 03:05:02;;;;;;;;;;;21.20;44.30;;;;;;6307161;28;19923;-45
2022/01/12 03:08:13;;;;;;;;;;;21.50;44.50;;;;;;6309053;28;20494;-42
2022/01/12 03:11:17;;;;;;;;;;;21.10;44.30;;;;;;6297648;28;19928;-42
2022/01/12 03:14:22;;;;;;;;;;;21.20;44.40;;;;;;6281078;28;20016;-43
2022/01/12 03:17:23;;;;;;;;;;;21.30;44.50;;;;;;6282969;28;20038;-42
2022/01/12 03:20:25;;;;;;;;;;;21.20;44.40;;;;;;6303563;28;19930;-42
2022/01/12 03:23:26;;;;;;;;;;;21.60;44.60;;;;;;6304014;28;20351;-41
2022/01/12 03:26:29;;;;;;;;;;;21.60;44.70;;;;;;6305132;28;19928;-46
2022/01/12 03:29:30;;;;;;;;;;;21.20;44.50;;;;;;6307049;28;20019;-43
2022/01/12 03:32:37;;;;;;;;;;;21.50;45.30;;;;;;6314391;28;19967;-47
2022/01/12 03:35:50;;;;;;;;;;;21.50;44.60;;;;;;6314655;28;19934;-44
2022/01/12 03:38:52;;;;;;;;;;;21.20;44.40;;;;;;6310956;28;19950;-41
2022/01/12 03:41:54;;;;;;;;;;;21.50;44.60;;;;;;6300299;28;19924;-43
2022/01/12 03:44:56;;;;;;;;;;;21.20;44.50;;;;;;6273338;28;20036;-43
2022/01/12 03:47:58;;;;;;;;;;;21.20;44.60;;;;;;6255153;28;20399;-41
2022/01/12 03:50:59;;;;;;;;;;;21.30;44.60;;;;;;6296943;28;20694;-42
2022/01/12 03:54:01;;;;;;;;;;;21.50;44.60;;;;;;6312291;28;20005;-42
2022/01/12 03:57:04;;;;;;;;;;;21.30;44.50;;;;;;6316278;28;20196;-41
2022/01/12 04:00:06;;;;;;;;;;;21.20;44.50;;;;;;6310941;28;20484;-43
2022/01/12 04:03:15;;;;;;;;;;;21.30;44.50;;;;;;6306819;28;19930;-41
2022/01/12 04:09:34;;;;;;;;;;;21.30;44.50;;;;;;6310396;28;20377;-41
2022/01/12 04:12:36;;;;;;;;;;;21.20;44.50;;;;;;6286566;28;19962;-44
2022/01/12 04:15:37;;;;;;;;;;;21.40;44.60;;;;;;6309478;28;19923;-42
2022/01/12 04:18:39;;;;;;;;;;;21.30;44.60;;;;;;6306410;28;20245;-45
2022/01/12 04:21:45;;;;;;;;;;;21.20;44.50;;;;;;6309835;28;19924;-40
2022/01/12 04:24:46;;;;;;;;;;;21.50;44.80;;;;;;6307602;28;20414;-41
2022/01/12 04:27:48;;;;;;;;;;;21.20;44.70;;;;;;6313039;28;19927;-45
2022/01/12 04:30:50;;;;;;;;;;;21.10;44.70;;;;;;6312879;28;19920;-45
2022/01/12 04:33:52;;;;;;;;;;;21.10;44.60;;;;;;6299924;28;19924;-44
2022/01/12 04:36:54;;;;;;;;;;;21.20;44.60;;;;;;6306829;28;20567;-44
2022/01/12 04:39:55;;;;;;;;;;;21.30;44.50;;;;;;6306109;28;20165;-45
2022/01/12 04:42:57;;;;;;;;;;;21.30;44.50;;;;;;6298671;28;19924;-44
2022/01/12 04:52:27;;;;;;;;;;;21.50;44.60;;;;;;6312596;28;19928;-47
2022/01/12 04:55:29;;;;;;;;;;;21.40;44.60;;;;;;6311247;28;19930;-44
2022/01/12 04:58:31;;;;;;;;;;;21.60;44.70;;;;;;6306959;28;19924;-44
2022/01/12 05:01:36;;;;;;;;;;;21.20;44.50;;;;;;6299590;28;19928;-47
2022/01/12 05:08:09;;;;;;;;;;;21.10;44.60;;;;;;6302839;28;20258;-44
2022/01/12 05:14:36;;;;;;;;;;;21.40;44.60;;;;;;6302598;28;19982;-48
2022/01/12 05:17:38;;;;;;;;;;;21.50;44.70;;;;;;6310348;28;19923;-46
2022/01/12 05:20:40;;;;;;;;;;;21.20;44.60;;;;;;6303214;28;20677;-46
2022/01/12 05:23:42;;;;;;;;;;;21.50;44.80;;;;;;6298015;28;20288;-44
2022/01/12 05:26:44;;;;;;;;;;;21.50;44.70;;;;;;6301597;28;20001;-47
2022/01/12 05:29:46;;;;;;;;;;;21.40;44.70;;;;;;6311738;28;20505;-47
2022/01/12 05:32:48;;;;;;;;;;;21.10;44.60;;;;;;6312784;28;19930;-49
2022/01/12 05:35:51;;;;;;;;;;;21.30;44.70;;;;;;6315292;28;19931;-47
2022/01/12 05:38:53;;;;;;;;;;;21.10;44.70;;;;;;6311835;28;19963;-47
2022/01/12 05:41:54;;;;;;;;;;;21.40;44.80;;;;;;6303131;28;19996;-49
2022/01/12 05:44:56;;;;;;;;;;;21.10;44.70;;;;;;6308350;28;20046;-46
2022/01/12 05:51:15;;;;;;;;;;;21.40;44.80;;;;;;6284867;28;21886;-48
2022/01/12 05:54:17;;;;;;;;;;;21.20;44.70;;;;;;6300715;28;20720;-46
2022/01/12 05:57:19;;;;;;;;;;;21.50;44.80;;;;;;6294772;28;20285;-44
2022/01/12 06:00:22;;;;;;;;;;;21.40;44.80;;;;;;6293992;28;19999;-45
2022/01/12 06:03:31;;;;;;;;;;;21.10;44.60;;;;;;6304200;28;19927;-49
2022/01/12 06:06:35;;;;;;;;;;;21.40;44.80;;;;;;6312543;28;20792;-49
2022/01/12 06:09:36;;;;;;;;;;;21.00;44.70;;;;;;6301278;27;20010;-49
2022/01/12 06:12:38;;;;;;;;;;;21.30;44.80;;;;;;6312076;28;19923;-46
2022/01/12 06:15:40;;;;;;;;;;;21.00;44.70;;;;;;6301767;28;19924;-48
2022/01/12 06:18:42;;;;;;;;;;;21.30;44.80;;;;;;6303441;28;20605;-46
2022/01/12 06:21:44;;;;;;;;;;;21.20;44.80;;;;;;6305033;28;20830;-48
2022/01/12 06:24:51;;;;;;;;;;;20.90;44.60;;;;;;6304729;28;19984;-46
2022/01/12 06:27:56;;;;;;;;;;;21.50;44.90;;;;;;6302354;28;19919;-49
2022/01/12 06:34:14;;;;;;;;;;;20.90;44.60;;;;;;6287528;28;20476;-50
2022/01/12 06:37:16;;;;;;;;;;;21.00;44.70;;;;;;6301098;28;19927;-48
2022/01/12 06:40:18;;;;;;;;;;;21.00;44.80;;;;;;6303876;28;19924;-46
2022/01/12 06:43:20;;;;;;;;;;;20.90;44.70;;;;;;6280753;28;19967;-46
2022/01/12 06:46:25;;;;;;;;;;;21.30;44.80;;;;;;6304850;28;19930;-47
2022/01/12 06:49:28;;;;;;;;;;;21.20;44.70;;;;;;6298821;28;20630;-48
2022/01/12 06:52:30;;;;;;;;;;;21.10;44.60;;;;;;6297549;28;20030;-46
2022/01/12 06:55:33;;;;;;;;;;;21.00;44.50;;;;;;6296854;28;19928;-50
2022/01/12 06:58:34;;;;;;;;;;;21.60;44.80;;;;;;6295890;28;19928;-47
2022/01/12 07:01:38;;;;;;;;;;;21.10;44.50;;;;;;6278590;28;19928;-47
2022/01/12 07:04:41;;;;;;;;;;;21.20;44.50;;;;;;6255858;28;20803;-49
2022/01/12 07:07:42;;;;;;;;;;;21.90;44.80;;;;;;6278027;28;20024;-45
2022/01/12 07:10:54;;;;;;;;;;;21.20;44.40;;;;;;6278969;28;21524;-48
2022/01/12 07:13:58;;;;;;;;;;;21.40;44.40;;;;;;6272654;28;19927;-48
2022/01/12 07:17:00;;;;;;;;;;;21.40;44.40;;;;;;6271652;28;19923;-47
2022/01/12 07:20:03;;;;;;;;;;;21.40;44.40;;;;;;6271638;28;19959;-46
2022/01/12 07:23:11;;;;;;;;;;;21.30;44.20;;;;;;6270537;28;20774;-51
2022/01/12 07:26:14;;;;;;;;;;;21.10;44.10;;;;;;6268864;28;20755;-47
2022/01/12 07:29:16;;;;;;;;;;;21.70;44.30;;;;;;6270581;28;20040;-50
2022/01/12 07:32:17;;;;;;;;;;;21.70;44.40;;;;;;6248592;28;20001;-50
2022/01/12 07:35:19;;;;;;;;;;;21.40;44.10;;;;;;6248180;28;19928;-45
2022/01/12 07:38:20;;;;;;;;;;;21.60;44.20;;;;;;6243350;28;20223;-47
2022/01/12 07:41:22;;;;;;;;;;;21.70;44.30;;;;;;6253137;28;19928;-45
2022/01/12 07:44:23;;;;;;;;;;;21.50;44.10;;;;;;6233163;28;19928;-46
2022/01/12 07:47:25;;;;;;;;;;;21.80;44.20;;;;;;6211072;28;19936;-45
2022/01/12 07:50:27;;;;;;;;;;;21.40;44.00;;;;;;6250496;28;20055;-46
2022/01/12 07:53:28;;;;;;;;;;;21.30;43.90;;;;;;6230088;28;19996;-45
2022/01/12 07:56:30;;;;;;;;;;;22.00;44.30;;;;;;6201367;28;19932;-47
2022/01/12 07:59:31;;;;;;;;;;;21.80;44.10;;;;;;6228395;28;19928;-46
2022/01/12 08:02:33;;;;;;;;;;;21.80;44.30;;;;;;6201887;28;19934;-48
2022/01/12 08:05:34;;;;;;;;;;;22.00;44.10;;;;;;6186579;28;19935;-49
2022/01/12 08:08:36;;;;;;;;;;;21.90;44.00;;;;;;6187807;28;21230;-45
2022/01/12 08:11:37;;;;;;;;;;;22.30;44.20;;;;;;6198941;28;21033;-46
2022/01/12 08:14:38;;;;;;;;;;;21.80;43.90;;;;;;6198669;28;19928;-44
2022/01/12 08:17:40;;;;;;;;;;;21.80;44.00;;;;;;6192776;28;20087;-43
2022/01/12 08:20:42;;;;;;;;;;;22.00;43.90;;;;;;6174339;28;19934;-43
2022/01/12 08:23:44;;;;;;;;;;;21.80;43.80;;;;;;6206724;28;19928;-43
2022/01/12 08:26:46;;;;;;;;;;;21.60;43.60;;;;;;6199034;28;19927;-42
2022/01/12 08:29:49;;;;;;;;;;;22.40;44.00;;;;;;6180548;28;19927;-43
2022/01/12 08:32:51;;;;;;;;;;;22.10;43.90;;;;;;6185903;28;19927;-43
2022/01/12 08:35:53;;;;;;;;;;;21.80;43.70;;;;;;6181487;28;19928;-41
2022/01/12 08:38:59;;;;;;;;;;;21.80;43.60;;;;;;6175531;28;21898;-42
2022/01/12 08:42:01;;;;;;;;;;;21.80;43.50;;;;;;6184114;28;20732;-39
2022/01/12 08:45:10;;;;;;;;;;;22.10;43.60;;;;;;6178287;28;19931;-43
2022/01/12 08:48:12;;;;;;;;;;;22.00;43.40;;;;;;6187783;28;20073;-43
2022/01/12 08:51:13;;;;;;;;;;;22.10;43.60;;;;;;6195357;28;20078;-42
2022/01/12 08:54:14;;;;;;;;;;;22.00;43.60;;;;;;6186285;28;19935;-43
2022/01/12 08:57:16;;;;;;;;;;;21.70;43.30;;;;;;6193953;28;19973;-41
2022/01/12 09:00:17;;;;;;;;;;;22.30;43.70;;;;;;6188177;28;19928;-42
2022/01/12 09:03:20;;;;;;;;;;;22.20;43.50;;;;;;6177034;28;19928;-42
2022/01/12 09:06:21;;;;;;;;;;;22.20;43.60;;;;;;6174106;28;20027;-43
2022/01/12 09:09:23;;;;;;;;;;;22.20;43.60;;;;;;6165352;28;19936;-44
2022/01/12 09:12:24;;;;;;;;;;;22.10;43.50;;;;;;6168194;28;19928;-41
2022/01/12 09:15:26;;;;;;;;;;;22.30;43.80;;;;;;6172185;28;19927;-43
2022/01/12 09:18:28;;;;;;;;;;;22.60;43.80;;;;;;6191832;28;20059;-41
2022/01/12 09:21:29;;;;;;;;;;;22.30;43.60;;;;;;6191426;28;21074;-44
2022/01/12 09:24:31;;;;;;;;;;;22.10;43.50;;;;;;6201888;28;19928;-40
2022/01/12 09:27:38;;;;;;;;;;;22.50;43.70;;;;;;6202143;28;22396;-40
2022/01/12 09:30:40;;;;;;;;;;;22.70;43.80;;;;;;6163874;28;20978;-42
2022/01/12 09:33:42;;;;;;;;;;;22.10;43.40;;;;;;6186638;28;19928;-40
2022/01/12 09:36:43;;;;;;;;;;;22.40;43.60;;;;;;6203864;28;19931;-41
2022/01/12 09:39:45;;;;;;;;;;;22.40;43.70;;;;;;6208085;28;19935;-38
2022/01/12 09:42:49;;;;;;;;;;;22.10;43.50;;;;;;6206105;28;19927;-40
2022/01/12 09:45:51;;;;;;;;;;;22.20;43.40;;;;;;6192317;28;19928;-38
2022/01/12 09:48:54;;;;;;;;;;;22.60;43.60;;;;;;6215270;28;19971;-40
2022/01/12 09:51:57;;;;;;;;;;;22.20;43.40;;;;;;6207541;28;19936;-41
2022/01/12 09:54:58;;;;;;;;;;;22.30;43.50;;;;;;6199901;28;19934;-40
2022/01/12 09:58:00;;;;;;;;;;;22.20;43.40;;;;;;6175580;28;20013;-41
2022/01/12 10:01:02;;;;;;;;;;;22.20;43.40;;;;;;6187163;28;19928;-41
2022/01/12 10:04:08;;;;;;;;;;;22.40;43.60;;;;;;6186455;28;21111;-41
2022/01/12 10:07:11;;;;;;;;;;;22.40;43.40;;;;;;6189770;28;19931;-41
2022/01/12 10:10:14;;;;;;;;;;;22.30;43.40;;;;;;6198319;28;19931;-41
2022/01/12 10:13:22;;;;;;;;;;;22.20;43.30;;;;;;6196467;28;20010;-43
2022/01/12 10:16:26;;;;;;;;;;;22.40;43.40;;;;;;6169312;28;19935;-41
2022/01/12 10:19:29;;;;;;;;;;;22.50;43.50;;;;;;6195629;28;20048;-40
2022/01/12 10:22:30;;;;;;;;;;;22.20;43.20;;;;;;6180995;28;19971;-40
2022/01/12 10:25:31;;;;;;;;;;;22.30;43.40;;;;;;6189302;28;20117;-42
2022/01/12 10:28:35;;;;;;;;;;;22.30;43.30;;;;;;6201822;28;21165;-38
2022/01/12 10:31:44;;;;;;;;;;;22.40;43.30;;;;;;6206304;28;20005;-40
2022/01/12 10:34:52;;;;;;;;;;;22.60;43.40;;;;;;6217610;28;19928;-38
2022/01/12 10:38:04;;;;;;;;;;;22.50;43.30;;;;;;6171221;28;19935;-40
2022/01/12 10:41:05;;;;;;;;;;;22.60;43.30;;;;;;6203504;28;19962;-40
2022/01/12 10:44:07;;;;;;;;;;;22.30;43.20;;;;;;6190879;28;20061;-44
2022/01/12 10:47:09;;;;;;;;;;;22.70;43.40;;;;;;6202367;28;21415;-45
2022/01/12 10:50:12;;;;;;;;;;;22.60;43.30;;;;;;6191383;28;20050;-43
2022/01/12 10:53:25;;;;;;;;;;;22.80;43.50;;;;;;6193271;28;20894;-41
2022/01/12 10:56:26;;;;;;;;;;;22.40;43.20;;;;;;6191280;28;19976;-41
2022/01/12 10:59:27;;;;;;;;;;;22.30;43.20;;;;;;6171681;28;21677;-41
2022/01/12 11:02:29;;;;;;;;;;;22.40;43.20;;;;;;6179685;28;20658;-42
2022/01/12 11:05:32;;;;;;;;;;;22.70;43.40;;;;;;6191364;28;19927;-40
2022/01/12 11:08:34;;;;;;;;;;;22.60;43.20;;;;;;6176392;28;19928;-40
2022/01/12 11:11:35;;;;;;;;;;;22.30;43.10;;;;;;6201510;28;19927;-42
2022/01/12 11:14:37;;;;;;;;;;;22.40;43.20;;;;;;6214198;28;19928;-42
2022/01/12 11:17:38;;;;;;;;;;;22.80;43.30;;;;;;6210896;28;21268;-44
2022/01/12 11:20:42;;;;;;;;;;;22.40;43.20;;;;;;6211442;28;20843;-41
2022/01/12 11:23:44;;;;;;;;;;;22.50;43.20;;;;;;6205153;28;19928;-43
2022/01/12 11:26:47;;;;;;;;;;;22.60;43.20;;;;;;6196510;28;19935;-46
2022/01/12 11:29:49;;;;;;;;;;;22.90;43.40;;;;;;6207181;28;19975;-43
2022/01/12 11:32:58;;;;;;;;;;;22.50;43.30;;;;;;6205099;28;19932;-44
2022/01/12 11:36:02;;;;;;;;;;;22.70;43.30;;;;;;6211174;28;20038;-42
2022/01/12 11:39:04;;;;;;;;;;;22.70;43.30;;;;;;6231543;28;20884;-43
2022/01/12 11:42:06;;;;;;;;;;;22.70;43.20;;;;;;6218777;28;19963;-45
2022/01/12 11:45:18;;;;;;;;;;;22.50;43.20;;;;;;6223057;28;20558;-42
2022/01/12 11:48:28;;;;;;;;;;;23.00;43.30;;;;;;6230995;28;19931;-43
2022/01/12 11:51:34;;;;;;;;;;;22.50;43.10;;;;;;6228888;28;21291;-46
2022/01/12 11:54:36;;;;;;;;;;;22.80;43.20;;;;;;6216624;28;19977;-43
2022/01/12 11:57:41;;;;;;;;;;;22.60;43.10;;;;;;6236989;28;20970;-44
2022/01/12 12:00:42;;;;;;;;;;;22.70;43.10;;;;;;6223459;28;19927;-48
2022/01/12 12:03:54;;;;;;;;;;;22.70;43.10;;;;;;6229260;28;19969;-43
2022/01/12 12:07:04;;;;;;;;;;;22.90;43.20;;;;;;6221417;28;19928;-49
2022/01/12 12:10:10;;;;;;;;;;;22.50;43.10;;;;;;6237689;28;19927;-43
2022/01/12 12:13:13;;;;;;;;;;;22.90;43.20;;;;;;6189010;28;19928;-46
2022/01/12 12:16:15;;;;;;;;;;;22.70;43.10;;;;;;6230944;28;19928;-43
2022/01/12 12:19:18;;;;;;;;;;;22.80;43.20;;;;;;6219384;28;19927;-44
2022/01/12 12:22:21;;;;;;;;;;;22.80;43.20;;;;;;6194151;28;21449;-44
2022/01/12 12:25:23;;;;;;;;;;;22.50;42.90;;;;;;6224143;28;20771;-43
2022/01/12 12:28:24;;;;;;;;;;;22.60;43.00;;;;;;6223716;28;21024;-49
2022/01/12 12:31:26;;;;;;;;;;;22.70;43.00;;;;;;6227849;28;19971;-46
2022/01/12 12:34:47;;;;;;;;;;;22.70;43.10;;;;;;6212166;28;20086;-45
2022/01/12 12:37:52;;;;;;;;;;;22.90;43.10;;;;;;6198179;28;20038;-43
2022/01/12 12:40:55;;;;;;;;;;;22.60;42.90;;;;;;6206932;28;19934;-44
2022/01/12 12:43:56;;;;;;;;;;;23.00;43.10;;;;;;6217008;28;19934;-43
2022/01/12 12:47:06;;;;;;;;;;;22.90;43.10;;;;;;6200807;28;19953;-46
2022/01/12 12:50:11;;;;;;;;;;;22.60;42.80;;;;;;6192351;28;20042;-43
2022/01/12 12:53:14;;;;;;;;;;;22.90;43.10;;;;;;6175226;28;19932;-43
2022/01/12 12:56:19;;;;;;;;;;;22.80;43.00;;;;;;6189218;28;19927;-43
2022/01/12 12:59:21;;;;;;;;;;;22.60;42.90;;;;;;6188809;28;20779;-45
2022/01/12 13:02:22;;;;;;;;;;;23.30;43.20;;;;;;6167623;28;20009;-48
2022/01/12 13:05:24;;;;;;;;;;;22.70;42.90;;;;;;6162007;28;20039;-43
2022/01/12 13:08:26;;;;;;;;;;;23.20;43.10;;;;;;6164880;28;19927;-47
2022/01/12 13:11:28;;;;;;;;;;;23.00;42.90;;;;;;6189462;28;19934;-45
2022/01/12 13:14:40;;;;;;;;;;;23.30;43.10;;;;;;6187842;28;20003;-43
2022/01/12 13:17:41;;;;;;;;;;;23.20;43.00;;;;;;6177078;28;19926;-42
2022/01/12 13:23:59;;;;;;;;;;;23.30;42.80;;;;;;6197483;28;19928;-48
2022/01/12 13:27:00;;;;;;;;;;;23.30;42.90;;;;;;6155116;28;19928;-46
2022/01/12 13:30:02;;;;;;;;;;;23.20;42.70;;;;;;6195177;28;19928;-51
2022/01/12 13:33:04;;;;;;;;;;;23.30;42.70;;;;;;6190258;28;19934;-49
2022/01/12 13:36:13;;;;;;;;;;;23.30;42.70;;;;;;6163737;28;19931;-49
2022/01/12 13:39:16;;;;;;;;;;;22.90;42.50;;;;;;6183343;28;19928;-45
2022/01/12 13:42:17;;;;;;;;;;;23.00;42.50;;;;;;6180308;28;19927;-51
2022/01/12 13:45:22;;;;;;;;;;;23.50;42.80;;;;;;6188143;28;20145;-48
2022/01/12 13:48:29;;;;;;;;;;;23.00;42.50;;;;;;6198570;28;19951;-46
2022/01/12 13:51:37;;;;;;;;;;;23.50;42.70;;;;;;6184998;28;19989;-42
2022/01/12 13:54:40;;;;;;;;;;;23.40;42.60;;;;;;6175598;28;19932;-47
2022/01/12 13:57:43;;;;;;;;;;;23.30;42.50;;;;;;6203265;28;20456;-46
2022/01/12 14:00:44;;;;;;;;;;;23.40;42.50;;;;;;6193201;28;20001;-50
2022/01/12 14:03:50;;;;;;;;;;;23.60;42.60;;;;;;6199376;28;19999;-47
2022/01/12 14:06:54;;;;;;;;;;;23.30;42.40;;;;;;6187311;28;19936;-47
2022/01/12 14:09:57;;;;;;;;;;;23.60;42.50;;;;;;6203926;28;22068;-46
2022/01/12 14:12:58;;;;;;;;;;;23.50;42.40;;;;;;6209210;28;19934;-45
2022/01/12 14:16:08;;;;;;;;;;;23.40;42.30;;;;;;6196714;28;19927;-47
2022/01/12 14:19:10;;;;;;;;;;;23.40;42.40;;;;;;6170952;28;19962;-49
2022/01/12 14:22:11;;;;;;;;;;;23.60;42.40;;;;;;6193094;28;19934;-47
2022/01/12 14:25:14;;;;;;;;;;;23.50;42.30;;;;;;6209521;28;19934;-47
2022/01/12 14:28:16;;;;;;;;;;;23.70;42.40;;;;;;6196940;28;20046;-53
2022/01/12 14:31:18;;;;;;;;;;;23.50;42.30;;;;;;6195838;28;20066;-48
2022/01/12 14:34:19;;;;;;;;;;;23.70;42.30;;;;;;6194992;28;20017;-44
2022/01/12 14:37:21;;;;;;;;;;;23.60;42.40;;;;;;6201961;28;19928;-47
2022/01/12 14:40:23;;;;;;;;;;;23.70;42.30;;;;;;6202852;28;20022;-48
2022/01/12 14:43:29;;;;;;;;;;;23.50;42.20;;;;;;6171752;28;19945;-45
2022/01/12 14:46:31;;;;;;;;;;;23.50;42.20;;;;;;6160554;28;19936;-43
2022/01/12 14:49:32;;;;;;;;;;;23.80;42.30;;;;;;6183017;28;20046;-43
2022/01/12 14:52:34;;;;;;;;;;;24.20;42.60;;;;;;6187011;28;19931;-45
2022/01/12 14:55:37;;;;;;;;;;;23.30;42.00;;;;;;6195778;28;20046;-46
2022/01/12 14:58:40;;;;;;;;;;;23.90;42.40;;;;;;6196695;28;19934;-46
2022/01/12 15:01:41;;;;;;;;;;;23.50;42.20;;;;;;6186516;28;20940;-46
2022/01/12 15:04:43;;;;;;;;;;;23.80;42.40;;;;;;6197755;28;20839;-44
2022/01/12 15:07:45;;;;;;;;;;;23.70;42.40;;;;;;6196528;28;19934;-46
2022/01/12 15:10:48;;;;;;;;;;;23.80;42.50;;;;;;6181841;28;19927;-50
2022/01/12 15:13:56;;;;;;;;;;;23.70;42.50;;;;;;6157913;28;19928;-43
2022/01/12 15:16:57;;;;;;;;;;;23.70;42.50;;;;;;6180873;28;19935;-44
2022/01/12 15:19:59;;;;;;;;;;;23.80;42.40;;;;;;6159342;28;19934;-48
2022/01/12 15:23:00;;;;;;;;;;;24.10;42.50;;;;;;6158854;28;19927;-47
2022/01/12 15:26:02;;;;;;;;;;;23.70;42.30;;;;;;6179823;28;19936;-46
2022/01/12 15:29:04;;;;;;;;;;;23.70;42.30;;;;;;6183587;28;20608;-49
2022/01/12 15:32:06;;;;;;;;;;;23.70;42.40;;;;;;6187173;28;19942;-50
2022/01/12 15:35:08;;;;;;;;;;;23.70;42.40;;;;;;6184000;28;19943;-48
2022/01/12 15:38:10;;;;;;;;;;;23.80;42.60;;;;;;6145306;28;19928;-51
2022/01/12 15:41:12;;;;;;;;;;;23.60;42.50;;;;;;6173328;28;19934;-47
2022/01/12 15:44:14;;;;;;;;;;;23.70;42.50;;;;;;6171944;27;19935;-48
2022/01/12 15:47:16;;;;;;;;;;;23.80;42.70;;;;;;6172817;28;21167;-47
2022/01/12 15:50:17;;;;;;;;;;;23.60;42.50;;;;;;6196921;28;19963;-48
2022/01/12 15:53:19;;;;;;;;;;;23.80;42.70;;;;;;6194214;28;19934;-47
2022/01/12 15:56:23;;;;;;;;;;;23.60;42.50;;;;;;6185572;28;22123;-45
2022/01/12 15:59:25;;;;;;;;;;;24.00;42.60;;;;;;6197079;28;19928;-45
2022/01/12 16:02:27;;;;;;;;;;;23.60;42.40;;;;;;6153257;28;21626;-48
2022/01/12 16:05:28;;;;;;;;;;;23.80;42.50;;;;;;6188004;28;19928;-50
2022/01/12 16:08:32;;;;;;;;;;;23.80;43.20;;;;;;6197621;28;19931;-46
2022/01/12 16:11:35;;;;;;;;;;;24.10;42.70;;;;;;6204364;28;21086;-44
2022/01/12 16:14:36;;;;;;;;;;;23.60;42.40;;;;;;6201456;28;19934;-44
2022/01/12 16:17:45;;;;;;;;;;;23.70;42.50;;;;;;6186148;28;21086;-44
2022/01/12 16:20:46;;;;;;;;;;;23.90;42.50;;;;;;6193468;28;21477;-47
2022/01/12 16:23:49;;;;;;;;;;;23.90;42.60;;;;;;6196115;28;19978;-48
2022/01/12 16:26:51;;;;;;;;;;;23.90;42.60;;;;;;6205885;28;19931;-43
2022/01/12 16:29:54;;;;;;;;;;;23.90;42.50;;;;;;6215258;28;21361;-43
2022/01/12 16:32:55;;;;;;;;;;;23.70;42.40;;;;;;6210647;28;20069;-47
2022/01/12 16:35:57;;;;;;;;;;;24.00;42.60;;;;;;6199560;28;20062;-45
2022/01/12 16:38:58;;;;;;;;;;;23.90;42.50;;;;;;6197938;28;19928;-48
2022/01/12 16:42:00;;;;;;;;;;;23.80;42.50;;;;;;6229665;28;19928;-43
2022/01/12 16:45:02;;;;;;;;;;;23.80;42.40;;;;;;6217850;28;19946;-44
2022/01/12 16:48:04;;;;;;;;;;;23.70;42.40;;;;;;6219292;28;21823;-46
2022/01/12 16:51:05;;;;;;;;;;;23.90;42.40;;;;;;6223658;28;20001;-44
2022/01/12 16:54:06;;;;;;;;;;;23.80;42.40;;;;;;6227232;28;19934;-46
2022/01/12 16:57:08;;;;;;;;;;;24.10;42.60;;;;;;6216689;28;19997;-44
2022/01/12 17:00:10;;;;;;;;;;;23.70;42.40;;;;;;6233064;28;19935;-47
2022/01/12 17:03:13;;;;;;;;;;;23.80;42.50;;;;;;6229214;28;20791;-44
2022/01/12 17:06:17;;;;;;;;;;;24.20;42.60;;;;;;6226873;28;19927;-45
2022/01/12 17:09:19;;;;;;;;;;;24.00;42.60;;;;;;6236535;28;22227;-46
2022/01/12 17:12:21;;;;;;;;;;;23.70;42.50;;;;;;6236364;28;19987;-45
2022/01/12 17:15:38;;;;;;;;;;;23.70;42.70;;;;;;6240906;28;19935;-51
2022/01/12 17:18:58;;;;;;;;;;;23.80;42.70;;;;;;6247758;28;20050;-47
2022/01/12 17:21:59;;;;;;;;;;;23.50;42.70;;;;;;6219530;28;21053;-47
2022/01/12 17:25:13;;;;;;;;;;;23.70;42.80;;;;;;6240324;28;19927;-44
2022/01/12 17:28:26;;;;;;;;;;;23.70;42.90;;;;;;6246108;27;20014;-47
2022/01/12 17:31:31;;;;;;;;;;;23.90;43.00;;;;;;6255619;28;20040;-46
2022/01/12 17:34:33;;;;;;;;;;;23.40;42.90;;;;;;6260872;28;20909;-51
2022/01/12 17:37:34;;;;;;;;;;;23.60;43.00;;;;;;6257075;28;19928;-49
2022/01/12 17:40:39;;;;;;;;;;;23.40;43.00;;;;;;6260413;28;20058;-46
2022/01/12 17:43:40;;;;;;;;;;;23.40;43.00;;;;;;6220959;28;19931;-47
2022/01/12 17:46:45;;;;;;;;;;;23.40;43.00;;;;;;6263460;28;19928;-49
2022/01/12 17:53:04;;;;;;;;;;;23.50;43.00;;;;;;6248409;28;20030;-46
2022/01/12 17:56:05;;;;;;;;;;;23.60;43.10;;;;;;6266371;28;20406;-46
2022/01/12 17:59:07;;;;;;;;;;;24.20;43.50;;;;;;6253851;28;20034;-49
2022/01/12 18:02:09;;;;;;;;;;;23.60;43.20;;;;;;6269015;28;20038;-49
2022/01/12 18:05:11;;;;;;;;;;;23.40;43.20;;;;;;6265821;28;20809;-49
2022/01/12 18:08:12;;;;;;;;;;;23.40;43.10;;;;;;6267125;28;19967;-45
2022/01/12 18:11:16;;;;;;;;;;;23.40;43.10;;;;;;6260526;28;20232;-43
2022/01/12 18:14:18;;;;;;;;;;;23.30;43.10;;;;;;6245357;28;19927;-45
2022/01/12 18:17:19;;;;;;;;;;;23.30;43.20;;;;;;6252607;28;20023;-49
2022/01/12 18:20:21;;;;;;;;;;;23.30;43.20;;;;;;6256750;28;19934;-44
2022/01/12 18:23:22;;;;;;;;;;;23.40;43.30;;;;;;6266005;28;20012;-46
2022/01/12 18:26:24;;;;;;;;;;;23.50;43.50;;;;;;6272716;28;20034;-46
2022/01/12 18:29:31;;;;;;;;;;;23.70;43.60;;;;;;6274965;28;19927;-46
2022/01/12 18:32:33;;;;;;;;;;;23.30;44.10;;;;;;6266442;28;19924;-46
2022/01/12 18:35:35;;;;;;;;;;;23.20;43.50;;;;;;6266010;28;20364;-43
2022/01/12 18:38:38;;;;;;;;;;;23.20;43.50;;;;;;6270986;28;19920;-46
2022/01/12 18:41:40;;;;;;;;;;;22.70;43.20;;;;;;6272118;28;21265;-44
2022/01/12 18:44:44;;;;;;;;;;;23.20;43.50;;;;;;6243344;28;20480;-47
2022/01/12 18:47:53;;;;;;;;;;;23.30;43.60;;;;;;6267186;28;19928;-47
2022/01/12 18:50:56;;;;;;;;;;;23.10;43.40;;;;;;6269374;28;19934;-43
2022/01/12 18:54:00;;;;;;;;;;;22.90;43.50;;;;;;6253915;28;20941;-43
2022/01/12 18:57:02;;;;;;;;;;;23.10;43.70;;;;;;6267443;28;20025;-47
2022/01/12 19:00:05;;;;;;;;;;;23.10;43.70;;;;;;6257730;28;20646;-44
2022/01/12 19:03:07;;;;;;;;;;;22.90;43.60;;;;;;6288376;28;20038;-45
2022/01/12 19:06:10;;;;;;;;;;;23.00;43.70;;;;;;6283323;28;19927;-42